Time;durP1;ratioP1;P1;durP2;ratioP2;P2;SDS_P1;SDS_P2;PMS_P1;PMS_P2;Temp;Humidity;BMP_temperature;BMP_pressure;BME280_temperature;BME280_humidity;BME280_pressure;Samples;Min_cycle;Max_cycle;Signal;HPM_P1;HPM_P2
2023/04/07 00:00:26;;;;;;;3.00;2.40;;;;;;;8.67;100.00;100204.91;5029203;28;20860;-50
2023/04/07 00:02:53;;;;;;;5.97;2.77;;;;;;;8.59;100.00;100205.09;5024902;28;20998;-50
2023/04/07 00:05:19;;;;;;;4.57;2.90;;;;;;;8.54;100.00;100214.03;5031362;28;20971;-50
2023/04/07 00:07:46;;;;;;;6.93;2.37;;;;;;;8.55;100.00;100205.19;5031062;28;20817;-50
2023/04/07 00:10:22;;;;;;;2.87;2.67;;;;;;;8.74;100.00;100203.88;5031486;28;20471;-50
2023/04/07 00:12:49;;;;;;;4.03;1.87;;;;;;;8.57;100.00;100212.19;5031062;28;20452;-50
2023/04/07 00:15:15;;;;;;;4.70;2.03;;;;;;;8.54;100.00;100203.44;5031184;28;20518;-50
2023/04/07 00:17:42;;;;;;;4.20;3.03;;;;;;;8.53;100.00;100201.72;5030995;28;20463;-50
2023/04/07 00:20:09;;;;;;;9.90;2.30;;;;;;;8.57;100.00;100196.28;5030857;28;20559;-51
2023/04/07 00:22:35;;;;;;;2.33;2.13;;;;;;;8.69;100.00;100197.81;5030937;28;20539;-50
2023/04/07 00:25:02;;;;;;;29.17;2.40;;;;;;;8.66;100.00;100183.75;5031063;28;20463;-50
2023/04/07 00:27:28;;;;;;;5.93;3.13;;;;;;;8.73;100.00;100191.53;5031015;28;20459;-50
2023/04/07 00:29:54;;;;;;;2.30;2.10;;;;;;;8.78;100.00;100181.72;5030726;28;21011;-51
2023/04/07 00:32:21;;;;;;;2.60;2.40;;;;;;;8.77;100.00;100181.72;5030712;28;20448;-51
2023/04/07 00:34:48;;;;;;;2.93;2.30;;;;;;;8.82;100.00;100180.72;5027248;28;20833;-50
2023/04/07 00:37:14;;;;;;;4.77;2.60;;;;;;;8.85;100.00;100175.34;5028479;28;20492;-51
2023/04/07 00:39:41;;;;;;;3.80;3.50;;;;;;;8.93;100.00;100167.22;5030645;28;20456;-50
2023/04/07 00:42:07;;;;;;;2.63;2.43;;;;;;;9.00;100.00;100159.97;5030614;28;20452;-50
2023/04/07 00:44:34;;;;;;;2.13;2.03;;;;;;;9.01;100.00;100161.72;5030705;28;20455;-51
2023/04/07 00:47:00;;;;;;;2.50;2.30;;;;;;;9.00;100.00;100155.53;5030439;28;20823;-50
2023/04/07 00:49:27;;;;;;;2.70;2.50;;;;;;;9.02;100.00;100147.56;5030327;28;20839;-50
2023/04/07 00:51:54;;;;;;;3.67;3.37;;;;;;;8.90;100.00;100162.84;5030548;28;21054;-50
2023/04/07 00:54:23;;;;;;;4.93;1.80;;;;;;;8.87;100.00;100156.75;5030601;28;20487;-50
2023/04/07 00:56:50;;;;;;;5.30;2.83;;;;;;;8.73;100.00;100154.44;5030413;28;20549;-50
2023/04/07 00:59:16;;;;;;;4.23;2.07;;;;;;;8.74;100.00;100152.66;5030566;28;20458;-50
2023/04/07 01:02:17;;;;;;;2.50;2.23;;;;;;;8.66;100.00;100142.25;5030320;28;20489;-51
2023/04/07 01:05:08;;;;;;;3.83;3.47;;;;;;;8.71;100.00;100134.19;5030446;28;20987;-51
2023/04/07 01:07:47;;;;;;;2.97;2.43;;;;;;;8.71;100.00;100131.53;5029326;28;20444;-51
2023/04/07 01:10:20;;;;;;;4.53;1.90;;;;;;;8.75;100.00;100134.06;5029911;28;20473;-51
2023/04/07 01:13:04;;;;;;;2.40;2.20;;;;;;;8.63;100.00;100129.03;5030223;28;21019;-51
2023/04/07 01:15:33;;;;;;;1.57;1.47;;;;;;;8.84;100.00;100131.19;5030128;28;20491;-51
2023/04/07 01:18:08;;;;;;;3.20;3.00;;;;;;;8.76;100.00;100129.63;5029828;28;20458;-51
2023/04/07 01:20:36;;;;;;;1.70;1.60;;;;;;;8.82;100.00;100125.06;5029792;28;20503;-51
2023/04/07 01:23:07;;;;;;;3.83;2.53;;;;;;;8.82;100.00;100126.84;5030107;28;20452;-51
2023/04/07 01:25:51;;;;;;;2.77;2.57;;;;;;;8.77;100.00;100123.41;5029987;28;20463;-51
2023/04/07 01:28:56;;;;;;;8.60;3.40;;;;;;;8.59;100.00;100117.66;5029804;28;20447;-51
2023/04/07 01:31:25;;;;;;;2.40;2.27;;;;;;;8.51;100.00;100111.69;5021348;28;20479;-51
2023/04/07 01:33:55;;;;;;;4.73;2.67;;;;;;;8.48;100.00;100110.84;5029589;28;20871;-51
2023/04/07 01:36:23;;;;;;;2.90;1.97;;;;;;;8.48;100.00;100113.50;5029721;28;20495;-51
2023/04/07 01:38:51;;;;;;;2.13;2.00;;;;;;;8.42;100.00;100114.53;5029673;28;20808;-51
2023/04/07 01:41:18;;;;;;;2.30;1.80;;;;;;;8.54;100.00;100108.94;5029817;28;20534;-51
2023/04/07 01:43:46;;;;;;;2.60;2.50;;;;;;;8.58;100.00;100107.97;5029910;28;20517;-51
2023/04/07 01:46:14;;;;;;;3.50;3.37;;;;;;;8.60;100.00;100108.78;5029672;28;20487;-51
2023/04/07 01:48:41;;;;;;;1.53;1.43;;;;;;;8.71;100.00;100095.28;5029396;28;20451;-51
2023/04/07 01:51:10;;;;;;;4.20;2.70;;;;;;;8.70;100.00;100093.56;5029379;28;20507;-51
2023/04/07 01:53:38;;;;;;;0.67;0.67;;;;;;;8.75;100.00;100091.66;5029446;28;20543;-51
2023/04/07 01:56:05;;;;;;;1.80;1.70;;;;;;;8.73;100.00;100085.53;5029077;28;20499;-51
2023/04/07 01:58:31;;;;;;;2.57;2.37;;;;;;;8.67;100.00;100085.69;5029578;28;20483;-51
2023/04/07 02:00:58;;;;;;;6.73;2.37;;;;;;;8.60;100.00;100090.25;5029348;28;20471;-51
2023/04/07 02:03:45;;;;;;;5.73;1.50;;;;;;;8.55;100.00;100093.94;5029003;28;20459;-51
2023/04/07 02:06:16;;;;;;;2.53;2.33;;;;;;;8.55;100.00;100084.19;5029210;28;20450;-51
2023/04/07 02:08:49;;;;;;;2.97;1.70;;;;;;;8.42;100.00;100089.81;5028999;28;20966;-51
2023/04/07 02:11:19;;;;;;;4.73;2.93;;;;;;;8.38;100.00;100083.72;5029009;28;21007;-51
2023/04/07 02:13:46;;;;;;;2.23;2.13;;;;;;;8.55;100.00;100085.97;5029178;28;20479;-51
2023/04/07 02:16:14;;;;;;;3.50;3.20;;;;;;;8.50;100.00;100088.75;5029058;28;20491;-51
2023/04/07 02:18:43;;;;;;;5.50;3.93;;;;;;;8.52;100.00;100084.28;5028683;28;20451;-51
2023/04/07 02:21:11;;;;;;;3.60;3.40;;;;;;;8.47;100.00;100090.56;5028835;28;20475;-51
2023/04/07 02:23:38;;;;;;;5.23;2.80;;;;;;;8.46;100.00;100094.13;5029097;28;20456;-51
2023/04/07 02:26:05;;;;;;;5.13;2.80;;;;;;;8.49;100.00;100089.63;5029122;28;20465;-51
2023/04/07 02:28:31;;;;;;;2.67;2.47;;;;;;;8.49;100.00;100092.28;5029254;28;20490;-51
2023/04/07 02:30:57;;;;;;;4.47;3.03;;;;;;;8.48;100.00;100095.81;5028649;28;20493;-51
2023/04/07 02:33:24;;;;;;;2.07;1.87;;;;;;;8.54;100.00;100092.19;5028701;28;20455;-51
2023/04/07 02:35:50;;;;;;;3.50;3.30;;;;;;;8.35;100.00;100083.78;5024749;28;20869;-51
2023/04/07 02:38:17;;;;;;;3.13;2.93;;;;;;;8.43;100.00;100086.25;5029047;28;20535;-51
2023/04/07 02:40:43;;;;;;;4.53;3.37;;;;;;;8.54;100.00;100085.09;5028856;28;20480;-51
2023/04/07 02:43:10;;;;;;;2.73;2.53;;;;;;;8.42;100.00;100090.69;5028836;28;20836;-51
2023/04/07 02:45:36;;;;;;;3.00;2.80;;;;;;;8.36;100.00;100079.34;5028882;28;20877;-51
2023/04/07 02:48:03;;;;;;;5.37;2.97;;;;;;;8.31;100.00;100085.59;5028589;28;20451;-51
2023/04/07 02:50:29;;;;;;;5.27;4.60;;;;;;;8.36;100.00;100076.69;5028638;28;20883;-51
2023/04/07 02:52:56;;;;;;;4.20;3.90;;;;;;;8.49;100.00;100076.38;5028929;28;20553;-51
2023/04/07 02:55:22;;;;;;;3.60;3.33;;;;;;;8.49;100.00;100084.31;5028707;28;20462;-51
2023/04/07 02:57:49;;;;;;;3.23;2.63;;;;;;;8.46;100.00;100079.09;5028926;28;20545;-51
2023/04/07 03:00:15;;;;;;;3.97;3.57;;;;;;;8.37;100.00;100075.81;5028512;28;21015;-51
2023/04/07 03:02:42;;;;;;;4.73;4.43;;;;;;;8.45;100.00;100082.66;5028345;28;20455;-51
2023/04/07 03:05:08;;;;;;;3.50;3.20;;;;;;;8.43;100.00;100071.25;5028881;28;20452;-51
2023/04/07 03:07:35;;;;;;;6.23;3.57;;;;;;;8.46;100.00;100065.00;5028572;28;21011;-51
2023/04/07 03:10:01;;;;;;;8.43;4.03;;;;;;;8.29;100.00;100073.31;5028937;28;20533;-51
2023/04/07 03:12:28;;;;;;;5.90;3.27;;;;;;;8.29;100.00;100062.72;5028383;28;20456;-51
2023/04/07 03:14:54;;;;;;;6.43;3.70;;;;;;;8.49;100.00;100067.56;5028633;28;20466;-51
2023/04/07 03:17:21;;;;;;;3.13;2.93;;;;;;;8.43;100.00;100063.28;5028288;28;20495;-51
2023/04/07 03:19:47;;;;;;;7.63;4.13;;;;;;;8.53;100.00;100069.25;5028487;28;20546;-51
2023/04/07 03:22:13;;;;;;;3.27;3.17;;;;;;;8.43;100.00;100070.38;5028738;28;20452;-51
2023/04/07 03:24:40;;;;;;;4.23;3.70;;;;;;;8.48;100.00;100061.41;5028552;28;20447;-51
2023/04/07 03:27:06;;;;;;;3.83;3.53;;;;;;;8.44;100.00;100065.03;5027271;28;20478;-51
2023/04/07 03:29:33;;;;;;;3.30;3.10;;;;;;;8.45;100.00;100064.13;5028456;28;20451;-51
2023/04/07 03:31:59;;;;;;;8.33;3.87;;;;;;;8.47;100.00;100061.44;5030944;28;20515;-51
2023/04/07 03:34:26;;;;;;;4.23;3.20;;;;;;;8.59;100.00;100055.84;5031016;28;20451;-51
2023/04/07 03:36:52;;;;;;;4.80;3.50;;;;;;;8.67;100.00;100060.97;5028975;28;20522;-51
2023/04/07 03:39:19;;;;;;;3.47;3.00;;;;;;;8.48;100.00;100050.81;5032102;28;20562;-51
2023/04/07 03:41:45;;;;;;;3.60;3.30;;;;;;;8.47;100.00;100050.84;5031820;28;20561;-51
2023/04/07 03:44:12;;;;;;;13.73;3.87;;;;;;;8.23;100.00;100052.28;5031796;28;20962;-51
2023/04/07 03:46:38;;;;;;;3.73;3.30;;;;;;;8.26;100.00;100052.19;5031562;28;20451;-51
2023/04/07 03:49:06;;;;;;;3.13;2.90;;;;;;;8.29;100.00;100054.78;5031689;28;20905;-51
2023/04/07 03:51:33;;;;;;;3.77;3.47;;;;;;;8.14;100.00;100047.19;5031668;28;20472;-51
2023/04/07 03:53:59;;;;;;;3.50;3.20;;;;;;;8.17;100.00;100047.97;5032051;28;20451;-51
2023/04/07 03:56:26;;;;;;;3.07;2.87;;;;;;;8.39;100.00;100047.53;5031554;28;20496;-51
2023/04/07 03:58:54;;;;;;;3.33;3.13;;;;;;;8.50;100.00;100054.31;5032112;28;20586;-51
2023/04/07 04:01:21;;;;;;;6.30;4.37;;;;;;;8.35;100.00;100048.47;5031285;28;20479;-51
2023/04/07 04:03:48;;;;;;;6.40;5.60;;;;;;;8.32;100.00;100041.44;5031516;28;20458;-51
2023/04/07 04:06:15;;;;;;;7.23;4.97;;;;;;;8.55;100.00;100044.47;5031547;28;20447;-51
2023/04/07 04:08:42;;;;;;;5.10;4.27;;;;;;;8.35;100.00;100044.06;5031573;28;20455;-51
2023/04/07 04:11:08;;;;;;;3.57;3.37;;;;;;;8.24;100.00;100046.06;5031108;28;20475;-51
2023/04/07 04:13:35;;;;;;;4.50;3.77;;;;;;;8.31;100.00;100048.53;5031093;28;20456;-51
2023/04/07 04:16:01;;;;;;;5.53;5.17;;;;;;;8.23;100.00;100046.97;5031347;28;20455;-51
2023/04/07 04:18:28;;;;;;;3.33;3.13;;;;;;;8.30;100.00;100054.72;5031262;28;20934;-51
2023/04/07 04:20:54;;;;;;;3.77;3.47;;;;;;;8.31;100.00;100059.13;5031117;28;20472;-51
2023/04/07 04:23:20;;;;;;;6.10;3.50;;;;;;;8.25;100.00;100051.31;5031134;28;20824;-51
2023/04/07 04:25:47;;;;;;;4.27;4.07;;;;;;;8.26;100.00;100062.78;5031386;28;20530;-51
2023/04/07 04:28:13;;;;;;;4.13;3.83;;;;;;;8.25;100.00;100055.75;5030896;28;20454;-51
2023/04/07 04:30:40;;;;;;;3.90;3.60;;;;;;;8.15;100.00;100063.03;5030867;28;20537;-51
2023/04/07 04:33:06;;;;;;;4.67;3.20;;;;;;;8.22;100.00;100062.00;5030915;28;20479;-51
2023/04/07 04:35:33;;;;;;;5.40;4.80;;;;;;;8.33;100.00;100059.94;5026677;28;20464;-51
2023/04/07 04:37:59;;;;;;;5.87;2.30;;;;;;;8.43;100.00;100055.34;5030653;28;20498;-51
2023/04/07 04:40:25;;;;;;;4.00;2.93;;;;;;;8.38;100.00;100067.84;5030407;28;20484;-51
2023/04/07 04:42:52;;;;;;;3.33;3.03;;;;;;;8.50;100.00;100062.25;5030590;28;20493;-51
2023/04/07 04:45:18;;;;;;;5.13;3.80;;;;;;;8.47;100.00;100064.09;5030516;28;20451;-51
2023/04/07 04:47:45;;;;;;;4.30;3.93;;;;;;;8.47;100.00;100062.31;5030498;28;20482;-51
2023/04/07 04:50:11;;;;;;;5.60;4.00;;;;;;;8.51;100.00;100066.66;5030330;28;20859;-51
2023/04/07 04:52:38;;;;;;;2.80;2.60;;;;;;;8.53;100.00;100072.78;5030613;28;20482;-51
2023/04/07 04:55:05;;;;;;;2.67;2.47;;;;;;;8.56;100.00;100071.81;5030370;28;20452;-51
2023/04/07 04:57:34;;;;;;;3.07;2.87;;;;;;;8.53;100.00;100071.91;5030176;28;20937;-51
2023/04/07 05:00:02;;;;;;;2.80;2.60;;;;;;;8.63;100.00;100072.53;5017516;28;20475;-51
2023/04/07 05:02:29;;;;;;;2.60;2.10;;;;;;;8.66;100.00;100072.47;5030483;28;21275;-50
2023/04/07 05:04:56;;;;;;;4.20;3.80;;;;;;;8.66;100.00;100073.34;5030352;28;20528;-50
2023/04/07 05:07:23;;;;;;;3.97;3.77;;;;;;;8.67;100.00;100071.56;5030179;28;20459;-50
2023/04/07 05:09:50;;;;;;;3.40;2.47;;;;;;;8.62;100.00;100071.66;5030136;28;20829;-50
2023/04/07 05:12:16;;;;;;;12.50;3.17;;;;;;;8.61;100.00;100073.44;5030418;28;20455;-50
2023/04/07 05:14:42;;;;;;;3.73;3.43;;;;;;;8.70;100.00;100071.50;5030288;28;20456;-50
2023/04/07 05:17:09;;;;;;;3.00;2.80;;;;;;;8.60;100.00;100073.47;5029825;28;21000;-50
2023/04/07 05:19:35;;;;;;;2.97;2.77;;;;;;;8.67;100.00;100072.44;5029948;28;20558;-50
2023/04/07 05:22:02;;;;;;;6.00;2.40;;;;;;;8.66;100.00;100073.34;5029937;28;20455;-50
2023/04/07 05:24:29;;;;;;;3.43;2.80;;;;;;;8.79;100.00;100072.16;5029787;28;20451;-51
2023/04/07 05:26:55;;;;;;;6.77;3.27;;;;;;;8.71;100.00;100068.81;5030088;28;20447;-51
2023/04/07 05:29:22;;;;;;;3.27;3.07;;;;;;;8.71;100.00;100067.94;5030096;28;20447;-50
2023/04/07 05:31:49;;;;;;;3.63;3.07;;;;;;;8.70;100.00;100080.31;5030477;28;20589;-51
2023/04/07 05:34:15;;;;;;;3.30;3.00;;;;;;;8.76;100.00;100073.97;5029673;28;20462;-51
2023/04/07 05:36:42;;;;;;;1.50;1.43;;;;;;;8.80;100.00;100075.66;5025324;28;20488;-51
2023/04/07 05:39:08;;;;;;;5.93;4.03;;;;;;;8.73;100.00;100072.28;5029665;28;20459;-51
2023/04/07 05:41:35;;;;;;;4.63;2.20;;;;;;;8.71;100.00;100073.22;5029638;28;20475;-51
2023/04/07 05:44:01;;;;;;;3.40;3.10;;;;;;;8.69;100.00;100069.75;5029833;28;20475;-51
2023/04/07 05:46:28;;;;;;;7.93;4.67;;;;;;;8.68;100.00;100073.31;5029592;28;20451;-51
2023/04/07 05:48:55;;;;;;;3.30;3.00;;;;;;;8.73;100.00;100076.72;5029381;28;20509;-50
2023/04/07 05:51:22;;;;;;;3.13;2.83;;;;;;;8.76;100.00;100079.28;5027963;28;20507;-50
2023/04/07 05:53:49;;;;;;;4.30;3.90;;;;;;;8.77;100.00;100076.63;5028996;28;20475;-51
2023/04/07 05:56:16;;;;;;;10.23;2.97;;;;;;;8.74;100.00;100079.31;5029362;28;20940;-51
2023/04/07 05:58:42;;;;;;;3.00;2.80;;;;;;;8.70;100.00;100068.84;5029503;28;20491;-51
2023/04/07 06:01:08;;;;;;;2.57;2.37;;;;;;;8.75;100.00;100072.25;5029231;28;20483;-51
2023/04/07 06:03:35;;;;;;;2.50;2.10;;;;;;;8.76;100.00;100084.56;5029104;28;20475;-51
2023/04/07 06:06:02;;;;;;;5.57;3.33;;;;;;;8.80;100.00;100078.31;5029528;28;20479;-51
2023/04/07 06:08:28;;;;;;;3.20;3.00;;;;;;;8.83;100.00;100081.75;5029415;28;20456;-50
2023/04/07 06:10:55;;;;;;;2.30;2.10;;;;;;;8.83;100.00;100080.88;5029017;28;20477;-51
2023/04/07 06:13:21;;;;;;;3.00;2.80;;;;;;;8.97;100.00;100080.53;5029297;28;20452;-51
2023/04/07 06:15:48;;;;;;;5.67;5.17;;;;;;;9.04;100.00;100082.09;5029041;28;20452;-51
2023/04/07 06:18:14;;;;;;;10.33;3.87;;;;;;;9.11;100.00;100084.56;5028852;28;20863;-51
2023/04/07 06:20:41;;;;;;;2.93;2.73;;;;;;;9.38;100.00;100090.06;5019224;28;20475;-51
2023/04/07 06:23:07;;;;;;;3.23;3.03;;;;;;;9.44;100.00;100100.50;5029198;28;20478;-51
2023/04/07 06:25:34;;;;;;;2.50;2.30;;;;;;;9.31;100.00;100094.63;5029246;28;20455;-51
2023/04/07 06:28:00;;;;;;;3.20;3.00;;;;;;;9.34;100.00;100097.25;5029167;28;20447;-51
2023/04/07 06:30:27;;;;;;;2.00;1.80;;;;;;;9.30;100.00;100092.91;5029089;28;20523;-52
2023/04/07 06:32:53;;;;;;;3.30;2.70;;;;;;;9.26;100.00;100098.34;5028797;28;20456;-51
2023/04/07 06:35:20;;;;;;;5.17;3.73;;;;;;;9.69;100.00;100100.69;5023923;28;20456;-51
2023/04/07 06:37:47;;;;;;;4.03;2.27;;;;;;;9.68;100.00;100096.31;5028842;28;21161;-51
2023/04/07 06:40:13;;;;;;;2.40;2.27;;;;;;;9.64;100.00;100105.28;5027554;28;20471;-51
2023/04/07 06:42:40;;;;;;;5.97;4.03;;;;;;;9.47;100.00;100097.78;5029005;28;20462;-51
2023/04/07 06:45:07;;;;;;;4.60;4.20;;;;;;;9.83;100.00;100095.00;5028829;28;20463;-51
2023/04/07 06:47:33;;;;;;;4.43;4.07;;;;;;;9.81;100.00;100103.00;5028944;28;20455;-51
2023/04/07 06:50:00;;;;;;;3.83;3.53;;;;;;;9.56;100.00;100099.28;5028361;28;20475;-51
2023/04/07 06:52:26;;;;;;;3.90;3.60;;;;;;;9.50;100.00;100103.88;5028926;28;20838;-51
2023/04/07 06:54:52;;;;;;;4.20;3.90;;;;;;;9.49;100.00;100101.25;5028819;28;20807;-51
2023/04/07 06:57:19;;;;;;;4.50;4.10;;;;;;;9.39;100.00;100107.72;5028561;28;20565;-51
2023/04/07 06:59:46;;;;;;;14.67;3.17;;;;;;;9.35;100.00;100111.38;5029075;28;20456;-51
2023/04/07 07:02:12;;;;;;;3.90;3.70;;;;;;;9.32;100.00;100108.78;5028594;28;20447;-51
2023/04/07 07:04:39;;;;;;;5.23;3.20;;;;;;;9.63;100.00;100107.06;5028395;28;20983;-51
2023/04/07 07:07:05;;;;;;;6.90;3.77;;;;;;;9.58;100.00;100116.03;5032026;28;20457;-51
2023/04/07 07:09:32;;;;;;;4.63;3.90;;;;;;;9.31;100.00;100115.88;5032659;28;20924;-51
2023/04/07 07:12:00;;;;;;;2.57;2.10;;;;;;;9.37;100.00;100112.19;5032388;28;20807;-51
2023/04/07 07:14:29;;;;;;;4.50;4.10;;;;;;;9.49;100.00;100111.88;5032252;28;20448;-51
2023/04/07 07:16:55;;;;;;;3.17;2.93;;;;;;;9.82;100.00;100120.66;5031925;28;20457;-51
2023/04/07 07:19:22;;;;;;;2.80;2.60;;;;;;;9.55;100.00;100111.69;5032170;28;20517;-51
2023/04/07 07:21:48;;;;;;;15.73;3.50;;;;;;;9.34;100.00;100114.94;5032149;28;20471;-51
2023/04/07 07:24:15;;;;;;;3.13;2.93;;;;;;;9.59;100.00;100116.00;5018615;28;20466;-51
2023/04/07 07:26:41;;;;;;;3.20;3.00;;;;;;;9.77;100.00;100112.84;5032097;28;20542;-51
2023/04/07 07:29:10;;;;;;;4.17;2.80;;;;;;;9.70;100.00;100113.03;5018982;28;20451;-51
2023/04/07 07:31:36;;;;;;;3.70;3.53;;;;;;;9.86;100.00;100113.47;5031519;28;20510;-51
2023/04/07 07:34:03;;;;;;;5.13;4.10;;;;;;;9.91;100.00;100115.13;5031616;28;20451;-51
2023/04/07 07:36:31;;;;;;;4.30;4.00;;;;;;;9.80;100.00;100117.19;5027534;28;20960;-51
2023/04/07 07:38:57;;;;;;;4.37;4.07;;;;;;;9.88;100.00;100123.16;5031717;28;20495;-50
2023/04/07 07:41:25;;;;;;;4.20;3.90;;;;;;;10.16;100.00;100117.94;5031544;28;20486;-51
2023/04/07 07:43:51;;;;;;;12.00;3.93;;;;;;;10.48;100.00;100121.41;5031751;28;20867;-51
2023/04/07 07:46:18;;;;;;;4.87;4.50;;;;;;;10.46;100.00;100113.50;5032100;28;20505;-51
2023/04/07 07:48:45;;;;;;;4.17;3.43;;;;;;;10.70;100.00;100125.16;5031626;28;20451;-51
2023/04/07 07:51:12;;;;;;;2.90;2.70;;;;;;;10.54;100.00;100119.44;5031537;28;20919;-51
2023/04/07 07:53:39;;;;;;;11.27;3.63;;;;;;;10.65;100.00;100117.31;5031757;28;20456;-50
2023/04/07 07:56:05;;;;;;;3.93;3.53;;;;;;;10.54;100.00;100130.06;5031706;28;20455;-51
2023/04/07 07:58:31;;;;;;;3.67;3.20;;;;;;;10.81;100.00;100124.78;5031456;28;20491;-51
2023/04/07 08:00:58;;;;;;;5.90;4.03;;;;;;;10.92;100.00;100130.63;5031170;28;20562;-51
2023/04/07 08:03:24;;;;;;;3.87;3.53;;;;;;;10.66;100.00;100136.78;5031597;28;20459;-51
2023/04/07 08:05:51;;;;;;;5.07;3.93;;;;;;;10.52;100.00;100137.22;5031440;28;20451;-51
2023/04/07 08:08:18;;;;;;;5.33;4.90;;;;;;;10.56;100.00;100146.84;5031740;28;20458;-51
2023/04/07 08:10:44;;;;;;;4.70;3.30;;;;;;;10.46;100.00;100145.38;5031487;28;20490;-51
2023/04/07 08:13:11;;;;;;;21.87;2.97;;;;;;;10.66;100.00;100147.41;5031161;28;20451;-51
2023/04/07 08:15:38;;;;;;;4.53;4.03;;;;;;;10.46;100.00;100145.38;5031259;28;20455;-51
2023/04/07 08:18:06;;;;;;;4.57;4.27;;;;;;;10.53;100.00;100149.59;5031092;28;20496;-51
2023/04/07 08:20:32;;;;;;;3.67;3.47;;;;;;;10.39;100.00;100150.00;5030817;28;20486;-51
2023/04/07 08:23:01;;;;;;;3.83;3.10;;;;;;;10.57;100.00;100153.03;5030964;28;20530;-51
2023/04/07 08:25:28;;;;;;;4.40;4.10;;;;;;;10.58;100.00;100153.00;5030845;28;20952;-51
2023/04/07 08:27:54;;;;;;;4.57;4.23;;;;;;;10.83;100.00;100150.44;5030864;28;20455;-51
2023/04/07 08:30:21;;;;;;;5.17;3.90;;;;;;;10.70;100.00;100157.06;5030806;28;21004;-51
2023/04/07 08:32:48;;;;;;;5.13;3.73;;;;;;;11.04;100.00;100156.84;5030871;28;20452;-51
2023/04/07 08:35:14;;;;;;;6.77;4.67;;;;;;;10.98;100.00;100152.59;5026171;28;20459;-51
2023/04/07 08:37:43;;;;;;;4.60;4.20;;;;;;;11.03;100.00;100151.56;5030999;28;20487;-52
2023/04/07 08:40:10;;;;;;;6.07;5.47;;;;;;;10.93;100.00;100153.66;5030450;28;20471;-51
2023/04/07 08:42:40;;;;;;;3.20;3.00;;;;;;;10.94;100.00;100150.94;5030674;28;20455;-51
2023/04/07 08:45:08;;;;;;;3.30;3.10;;;;;;;10.92;100.00;100162.53;5030935;28;20455;-51
2023/04/07 08:47:36;;;;;;;11.63;4.03;;;;;;;10.88;100.00;100164.44;5030476;28;20444;-51
2023/04/07 08:50:06;;;;;;;3.07;2.80;;;;;;;10.95;100.00;100160.66;5030296;28;20476;-51
2023/04/07 08:52:45;;;;;;;3.70;3.40;;;;;;;10.95;100.00;100163.31;5030579;28;20531;-51
2023/04/07 08:55:12;;;;;;;1.40;1.30;;;;;;;11.01;100.00;100164.91;5017766;28;20928;-51
2023/04/07 08:57:39;;;;;;;3.00;2.80;;;;;;;11.02;100.00;100157.81;5030450;28;20491;-51
2023/04/07 09:00:07;;;;;;;2.37;2.27;;;;;;;11.23;100.00;100167.72;5030162;28;20475;-51
2023/04/07 09:02:36;;;;;;;2.63;2.43;;;;;;;11.19;100.00;100166.97;5030260;28;20456;-51
2023/04/07 09:05:05;;;;;;;3.10;2.43;;;;;;;11.19;100.00;100174.09;5030464;28;20509;-51
2023/04/07 09:07:32;;;;;;;3.37;3.17;;;;;;;11.04;100.00;100162.16;5029830;28;20459;-51
2023/04/07 09:10:00;;;;;;;2.50;2.30;;;;;;;11.21;100.00;100174.91;5030316;28;20502;-51
2023/04/07 09:12:28;;;;;;;2.60;2.40;;;;;;;11.54;100.00;100172.91;5029816;28;21028;-51
2023/04/07 09:14:56;;;;;;;2.67;2.33;;;;;;;11.40;100.00;100175.19;5030084;28;20458;-51
2023/04/07 09:17:25;;;;;;;4.40;2.90;;;;;;;11.23;100.00;100173.06;5029713;28;20518;-51
2023/04/07 09:19:55;;;;;;;4.20;4.00;;;;;;;11.54;100.00;100175.56;5029853;28;20509;-51
2023/04/07 09:22:46;;;;;;;3.70;3.50;;;;;;;11.50;100.00;100182.78;5029789;28;21011;-51
2023/04/07 09:25:14;;;;;;;1.87;1.63;;;;;;;11.67;100.00;100189.34;5029670;28;20826;-51
2023/04/07 09:27:56;;;;;;;2.07;1.97;;;;;;;11.79;100.00;100186.28;5029608;28;20891;-52
2023/04/07 09:30:23;;;;;;;4.10;2.63;;;;;;;11.39;100.00;100184.09;5029094;28;20475;-52
2023/04/07 09:32:50;;;;;;;2.00;1.90;;;;;;;11.52;100.00;100185.41;5029780;28;20456;-51
2023/04/07 09:35:17;;;;;;;2.40;2.20;;;;;;;11.48;100.00;100183.75;5025353;28;20472;-51
2023/04/07 09:37:44;;;;;;;3.87;3.07;;;;;;;11.40;100.00;100186.69;5029887;28;20492;-51
2023/04/07 09:40:11;;;;;;;3.73;3.43;;;;;;;11.69;100.00;100187.47;5029987;28;20471;-52
2023/04/07 09:42:45;;;;;;;2.80;2.60;;;;;;;11.66;100.00;100187.59;5029363;28;20455;-51
2023/04/07 09:45:12;;;;;;;3.30;1.27;;;;;;;11.84;100.00;100192.31;5029225;28;20455;-51
2023/04/07 09:47:53;;;;;;;2.93;2.10;;;;;;;12.06;100.00;100195.94;5029317;28;20809;-52
2023/04/07 09:50:38;;;;;;;6.27;2.43;;;;;;;11.90;100.00;100193.88;5029142;28;20526;-51
2023/04/07 09:53:05;;;;;;;1.90;1.80;;;;;;;12.02;100.00;100188.97;5029193;28;20860;-51
2023/04/07 09:55:32;;;;;;;2.00;1.90;;;;;;;11.76;100.00;100197.84;5029720;28;20456;-51
2023/04/07 09:57:59;;;;;;;1.97;1.73;;;;;;;11.75;100.00;100200.56;5029119;28;21071;-51
2023/04/07 10:00:26;;;;;;;1.03;0.90;;;;;;;11.72;100.00;100190.91;5029123;28;20476;-51
2023/04/07 10:02:53;;;;;;;2.43;2.33;;;;;;;11.65;100.00;100199.13;5029089;28;20463;-51
2023/04/07 10:05:22;;;;;;;2.37;1.47;;;;;;;11.68;100.00;100197.25;5029153;28;20455;-52
2023/04/07 10:07:48;;;;;;;1.30;1.20;;;;;;;11.73;100.00;100195.31;5027836;28;20451;-52
2023/04/07 10:10:15;;;;;;;2.20;2.10;;;;;;;11.43;100.00;100191.91;5028974;28;20992;-51
2023/04/07 10:12:42;;;;;;;2.17;1.70;;;;;;;11.46;100.00;100191.78;5029031;28;20451;-52
2023/04/07 10:15:12;;;;;;;3.13;2.90;;;;;;;11.61;100.00;100197.50;5029128;28;20538;-51
2023/04/07 10:17:39;;;;;;;2.20;1.97;;;;;;;11.73;100.00;100199.75;5029464;28;20450;-51
2023/04/07 10:20:08;;;;;;;4.67;4.23;;;;;;;11.61;100.00;100208.16;5028707;28;20921;-51
2023/04/07 10:22:36;;;;;;;1.30;1.20;;;;;;;11.32;100.00;100207.34;5028861;28;20514;-51
2023/04/07 10:25:10;;;;;;;3.50;3.20;;;;;;;11.46;100.00;100198.91;5028778;28;20456;-51
2023/04/07 10:27:49;;;;;;;2.30;2.10;;;;;;;11.51;100.00;100213.81;5015965;28;20539;-51
2023/04/07 10:30:21;;;;;;;3.87;1.73;;;;;;;11.49;100.00;100212.97;5028672;28;20483;-51
2023/04/07 10:32:49;;;;;;;3.17;2.67;;;;;;;11.44;100.00;100214.06;5028664;28;20701;-51
2023/04/07 10:35:16;;;;;;;2.60;1.90;;;;;;;11.61;100.00;100216.16;5024858;28;20459;-51
2023/04/07 10:38:09;;;;;;;2.10;1.90;;;;;;;11.56;100.00;100216.31;5028940;28;20486;-51
2023/04/07 10:40:36;;;;;;;2.97;2.47;;;;;;;11.65;100.00;100216.00;5017542;28;20522;-51
2023/04/07 10:43:03;;;;;;;4.00;2.17;;;;;;;11.72;100.00;100221.97;5032781;28;20451;-51
2023/04/07 10:45:48;;;;;;;2.30;2.20;;;;;;;11.62;100.00;100221.41;5033002;28;20539;-51
2023/04/07 10:48:19;;;;;;;3.27;1.43;;;;;;;11.58;100.00;100219.78;5031741;28;20538;-51
2023/04/07 10:51:06;;;;;;;3.57;2.20;;;;;;;11.50;100.00;100222.69;5032694;28;21004;-51
2023/04/07 10:53:37;;;;;;;2.03;1.83;;;;;;;11.52;100.00;100225.34;5019362;28;20546;-51
2023/04/07 10:56:04;;;;;;;2.00;1.30;;;;;;;11.71;100.00;100233.56;5033540;28;20452;-50
2023/04/07 10:58:32;;;;;;;24.37;2.40;;;;;;;11.83;100.00;100233.19;5033329;28;20576;-52
2023/04/07 11:01:11;;;;;;;1.20;1.17;;;;;;;11.72;100.00;100237.97;5032402;28;20468;-51
2023/04/07 11:03:41;;;;;;;2.40;1.33;;;;;;;11.76;99.79;100240.47;5033151;28;20455;-51
2023/04/07 11:06:08;;;;;;;1.53;1.20;;;;;;;11.78;99.43;100235.06;5032119;28;20458;-51
2023/04/07 11:08:37;;;;;;;1.70;1.60;;;;;;;11.89;100.00;100234.75;5032757;28;20458;-51
2023/04/07 11:11:10;;;;;;;1.83;1.73;;;;;;;12.03;99.66;100235.13;5032218;28;21026;-51
2023/04/07 11:13:45;;;;;;;4.50;1.77;;;;;;;12.04;100.00;100234.19;5032493;28;20462;-52
2023/04/07 11:16:14;;;;;;;5.10;2.03;;;;;;;11.92;100.00;100240.81;5032304;28;20478;-52
2023/04/07 11:18:42;;;;;;;2.07;1.77;;;;;;;11.72;99.34;100240.63;5032157;28;20491;-51
2023/04/07 11:21:08;;;;;;;1.97;1.87;;;;;;;11.88;100.00;100243.66;5019129;28;21028;-51
2023/04/07 11:23:42;;;;;;;2.30;2.10;;;;;;;11.86;100.00;100233.06;5032091;28;20455;-51
2023/04/07 11:26:11;;;;;;;3.87;1.60;;;;;;;11.91;99.61;100241.75;5032414;28;20463;-51